Welcome to the New NWS' Forecast!
Most changes are behind the scenes, but click here for differences you might notice.

Terminal Aerodrome Forecast (TAF)

Issued by National Weather Service (NWS)

                            
000
FTUS42 KMFL 142320
TAFMIA
TAF
KMIA 142320Z 1500/1606 13007KT P6SM SCT030 SCT120 BKN250
     FM150300 VRB04KT P6SM FEW040 SCT250
     FM151400 12010KT P6SM FEW030 SCT250
     FM151800 10013KT P6SM SCT030 BKN050
     FM160100 08008KT P6SM FEW040 SCT250=